Terminal Aerodrome Forecast
Issued by NWS

Home | Current Version | Previous Version | Text Only | Print | Product List | Glossary On
Versions: 1 2 3 4 5 6 7 8 9 10 11 12 13 14 15 16 17 18 19 20
510
FTUS45 KABQ 092321
TAFLVS
TAF
KLVS 092321Z 1000/1024 22010KT P6SM BKN200
      TEMPO 1000/1003 14010G16KT
     FM101730 23012G22KT P6SM FEW250
     FM102000 23018G30KT P6SM FEW250=

USA.gov is the U.S. government's official web portal to all federal, state and local government web resources and services.